createdAt,value
2023-03-19T00:00:39.952Z,2.70
2023-03-19T00:04:02.736Z,2.80
2023-03-19T00:07:05.970Z,2.90
2023-03-19T00:10:09.387Z,3.10
2023-03-19T00:13:12.352Z,2.00
2023-03-19T00:16:15.199Z,3.30
2023-03-19T00:19:18.105Z,2.40
2023-03-19T00:22:20.931Z,2.10
2023-03-19T00:25:23.711Z,2.90
2023-03-19T00:28:27.321Z,2.10
2023-03-19T00:31:31.156Z,2.20
2023-03-19T00:34:34.195Z,3.10
2023-03-19T00:37:37.472Z,2.60
2023-03-19T00:40:40.284Z,2.60
2023-03-19T00:43:43.239Z,2.70
2023-03-19T00:46:46.998Z,2.90
2023-03-19T00:49:49.850Z,3.30
2023-03-19T00:52:52.577Z,3.50
2023-03-19T00:55:55.532Z,2.60
2023-03-19T00:58:58.357Z,2.70
2023-03-19T01:02:01.773Z,1.90
2023-03-19T01:05:04.974Z,2.80
2023-03-19T01:08:07.841Z,2.80
2023-03-19T01:11:14.486Z,4.20
2023-03-19T01:14:18.016Z,3.00
2023-03-19T01:17:20.980Z,2.60
2023-03-19T01:20:24.456Z,3.90
2023-03-19T01:23:27.672Z,1.90
2023-03-19T01:26:30.873Z,3.70
2023-03-19T01:29:33.672Z,3.70
2023-03-19T01:32:36.571Z,3.30
2023-03-19T01:35:39.635Z,3.50
2023-03-19T01:38:42.782Z,2.20
2023-03-19T01:41:45.770Z,2.90
2023-03-19T01:44:49.331Z,2.70
2023-03-19T01:47:52.919Z,2.10
2023-03-19T01:50:56.939Z,3.20
2023-03-19T01:54:04.573Z,2.10
2023-03-19T01:57:11.544Z,2.60
2023-03-19T02:00:14.697Z,3.10
2023-03-19T02:03:17.838Z,3.30
2023-03-19T02:06:22.080Z,3.10
2023-03-19T02:09:26.338Z,3.90
2023-03-19T02:12:29.146Z,3.20
2023-03-19T02:15:32.542Z,3.80
2023-03-19T02:18:36.465Z,3.60
2023-03-19T02:21:39.379Z,2.60
2023-03-19T02:24:53.277Z,3.30
2023-03-19T02:27:56.256Z,3.80
2023-03-19T02:31:00.031Z,3.40
2023-03-19T02:34:10.229Z,4.40
2023-03-19T02:37:30.067Z,3.50
2023-03-19T02:40:41.429Z,4.30
2023-03-19T02:43:44.367Z,4.10
2023-03-19T02:46:47.361Z,3.00
2023-03-19T02:49:50.215Z,4.30
2023-03-19T02:52:53.468Z,3.70
2023-03-19T02:55:56.719Z,3.10
2023-03-19T02:58:59.769Z,3.40
2023-03-19T03:02:02.613Z,3.30
2023-03-19T03:05:06.922Z,2.40
2023-03-19T03:08:10.761Z,3.00
2023-03-19T03:11:13.675Z,3.80
2023-03-19T03:14:16.745Z,3.70
2023-03-19T03:17:20.148Z,3.40
2023-03-19T03:20:23.226Z,2.00
2023-03-19T03:23:26.580Z,3.00
2023-03-19T03:26:29.463Z,3.30
2023-03-19T03:29:32.442Z,3.80
2023-03-19T03:32:36.929Z,3.10
2023-03-19T03:35:39.849Z,3.50
2023-03-19T03:38:42.682Z,2.20
2023-03-19T03:41:45.899Z,2.50
2023-03-19T03:44:48.761Z,2.60
2023-03-19T03:47:52.449Z,3.90
2023-03-19T03:50:55.263Z,3.70
2023-03-19T03:53:58.071Z,3.60
2023-03-19T03:57:03.346Z,3.90
2023-03-19T04:00:07.103Z,3.00
2023-03-19T04:03:10.483Z,2.90
2023-03-19T04:06:17.101Z,2.50
2023-03-19T04:09:20.008Z,2.70
2023-03-19T04:12:22.945Z,2.40
2023-03-19T04:15:25.835Z,3.40
2023-03-19T04:18:28.704Z,2.50
2023-03-19T04:21:31.625Z,3.70
2023-03-19T04:24:34.495Z,4.30
2023-03-19T04:27:37.406Z,3.30
2023-03-19T04:30:40.645Z,2.90
2023-03-19T04:33:44.599Z,2.60
2023-03-19T04:36:47.494Z,3.70
2023-03-19T04:39:51.458Z,3.20
2023-03-19T04:42:54.976Z,3.30
2023-03-19T04:45:57.976Z,4.00
2023-03-19T04:49:01.568Z,4.30
2023-03-19T04:52:04.868Z,3.70
2023-03-19T04:55:08.418Z,3.90
2023-03-19T04:58:11.401Z,3.30
2023-03-19T05:01:14.290Z,2.20
2023-03-19T05:04:17.848Z,2.00
2023-03-19T05:07:21.050Z,3.10
2023-03-19T05:10:24.967Z,2.30
2023-03-19T05:13:27.823Z,3.50
2023-03-19T05:16:30.822Z,2.90
2023-03-19T05:19:34.202Z,2.70
2023-03-19T05:22:37.115Z,2.90
2023-03-19T05:25:40.907Z,2.90
2023-03-19T05:28:44.213Z,2.80
2023-03-19T05:31:48.196Z,3.20
2023-03-19T05:34:50.959Z,2.60
2023-03-19T05:37:54.110Z,1.90
2023-03-19T05:40:57.058Z,2.10
2023-03-19T05:43:59.809Z,2.50
2023-03-19T05:47:02.559Z,2.60
2023-03-19T05:50:07.553Z,3.00
2023-03-19T05:53:10.359Z,3.50
2023-03-19T05:56:13.183Z,3.20
2023-03-19T05:59:16.024Z,2.70
2023-03-19T06:02:19.043Z,2.60
2023-03-19T06:05:22.104Z,3.50
2023-03-19T06:08:25.113Z,2.70
2023-03-19T06:11:28.193Z,3.30
2023-03-19T06:14:31.260Z,2.90
2023-03-19T06:17:34.013Z,2.70
2023-03-19T06:20:36.988Z,3.30
2023-03-19T06:23:39.813Z,2.60
2023-03-19T06:26:42.684Z,2.20
2023-03-19T06:29:45.581Z,1.90
2023-03-19T06:32:48.432Z,2.90
2023-03-19T06:35:51.532Z,2.60
2023-03-19T06:38:54.574Z,4.10
2023-03-19T06:41:57.819Z,2.90
2023-03-19T06:45:01.317Z,2.70
2023-03-19T06:48:04.431Z,3.30
2023-03-19T06:51:07.546Z,3.00
2023-03-19T06:54:10.695Z,3.00
2023-03-19T06:57:13.714Z,2.40
2023-03-19T07:00:18.746Z,2.40
2023-03-19T07:03:21.756Z,2.80
2023-03-19T07:06:24.954Z,2.90
2023-03-19T07:09:28.479Z,3.30
2023-03-19T07:12:31.634Z,3.00
2023-03-19T07:15:34.552Z,2.50
2023-03-19T07:18:37.737Z,2.70
2023-03-19T07:21:40.712Z,3.10
2023-03-19T07:24:44.263Z,3.20
2023-03-19T07:27:47.434Z,2.60
2023-03-19T07:30:53.852Z,2.10
2023-03-19T07:33:57.159Z,2.40
2023-03-19T07:36:59.929Z,3.20
2023-03-19T07:40:03.629Z,2.40
2023-03-19T07:43:06.918Z,2.70
2023-03-19T07:46:10.158Z,3.70
2023-03-19T07:49:13.053Z,4.10
2023-03-19T07:52:16.320Z,3.60
2023-03-19T07:55:19.446Z,2.70
2023-03-19T07:58:22.316Z,3.40
2023-03-19T08:01:26.138Z,3.50
2023-03-19T08:04:29.170Z,3.70
2023-03-19T08:07:32.923Z,3.60
2023-03-19T08:10:37.903Z,3.60
2023-03-19T08:16:45.380Z,3.50
2023-03-19T08:19:48.356Z,3.30
2023-03-19T08:22:51.204Z,2.00
2023-03-19T08:25:55.602Z,2.80
2023-03-19T08:28:59.129Z,2.70
2023-03-19T08:32:02.056Z,2.60
2023-03-19T08:35:06.291Z,3.10
2023-03-19T08:38:10.292Z,3.50
2023-03-19T08:41:13.392Z,3.40
2023-03-19T08:44:16.338Z,2.80
2023-03-19T08:47:19.340Z,2.70
2023-03-19T08:50:22.189Z,3.10
2023-03-19T08:53:25.660Z,3.00
2023-03-19T08:56:28.427Z,3.30
2023-03-19T08:59:34.085Z,3.80
2023-03-19T09:02:37.197Z,3.00
2023-03-19T09:05:40.705Z,3.40
2023-03-19T09:08:44.375Z,3.20
2023-03-19T09:11:47.985Z,3.30
2023-03-19T09:14:51.917Z,3.70
2023-03-19T09:17:54.951Z,3.70
2023-03-19T09:20:57.981Z,2.70
2023-03-19T09:24:00.934Z,3.80
2023-03-19T09:27:04.345Z,2.60
2023-03-19T09:30:10.051Z,3.70
2023-03-19T09:33:12.918Z,3.10
2023-03-19T09:36:16.185Z,3.40
2023-03-19T09:39:19.605Z,3.60
2023-03-19T09:42:44.717Z,2.50
2023-03-19T09:45:48.051Z,3.40
2023-03-19T09:49:14.794Z,4.30
2023-03-19T09:52:20.749Z,3.60
2023-03-19T09:55:29.364Z,3.40
2023-03-19T09:58:35.920Z,4.10
2023-03-19T10:01:45.541Z,3.90
2023-03-19T10:04:59.194Z,3.30
2023-03-19T10:08:18.734Z,3.40
2023-03-19T10:11:36.581Z,3.80
2023-03-19T10:15:18.320Z,3.80
2023-03-19T10:18:26.803Z,3.20
2023-03-19T10:21:45.062Z,3.10
2023-03-19T10:24:50.482Z,3.80
2023-03-19T10:31:14.952Z,3.40
2023-03-19T10:34:34.964Z,3.40
2023-03-19T10:37:38.676Z,3.40
2023-03-19T10:40:47.877Z,3.30
2023-03-19T10:43:58.788Z,3.30
2023-03-19T10:47:13.658Z,3.20
2023-03-19T10:50:25.189Z,3.00
2023-03-19T10:53:37.536Z,3.50
2023-03-19T10:56:46.501Z,2.60
2023-03-19T10:59:49.304Z,3.30
2023-03-19T11:02:54.401Z,3.60
2023-03-19T11:06:18.714Z,3.70
2023-03-19T11:09:34.544Z,3.30
2023-03-19T11:12:40.667Z,3.10
2023-03-19T11:15:47.155Z,3.70
2023-03-19T11:18:50.169Z,3.60
2023-03-19T11:22:08.104Z,3.50
2023-03-19T11:25:19.839Z,3.00
2023-03-19T11:28:26.754Z,3.50
2023-03-19T11:31:46.171Z,3.70
2023-03-19T11:35:29.519Z,3.30
2023-03-19T11:39:09.897Z,3.30
2023-03-19T11:42:40.764Z,3.20
2023-03-19T11:46:34.967Z,4.20
2023-03-19T11:49:54.069Z,3.80
2023-03-19T11:53:18.731Z,4.20
2023-03-19T11:56:22.115Z,3.40
2023-03-19T11:59:51.644Z,3.50
2023-03-19T12:03:22.425Z,3.10
2023-03-19T12:06:43.933Z,3.30
2023-03-19T12:10:03.271Z,3.60
2023-03-19T12:13:27.997Z,3.50
2023-03-19T12:17:03.868Z,3.30
2023-03-19T12:20:15.910Z,3.30
2023-03-19T12:23:41.265Z,3.20
2023-03-19T12:27:03.590Z,3.30
2023-03-19T12:30:37.676Z,3.60
2023-03-19T12:34:01.346Z,3.60
2023-03-19T12:37:29.227Z,3.00
2023-03-19T12:40:40.669Z,3.50
2023-03-19T12:43:50.318Z,3.90
2023-03-19T12:47:02.310Z,3.70
2023-03-19T12:50:09.404Z,3.20
2023-03-19T12:53:26.731Z,2.90
2023-03-19T12:56:57.513Z,3.70
2023-03-19T13:00:21.888Z,3.00
2023-03-19T13:03:50.997Z,3.60
2023-03-19T13:07:05.519Z,4.00
2023-03-19T13:10:17.980Z,3.40
2023-03-19T13:13:47.806Z,3.80
2023-03-19T13:17:17.065Z,4.00
2023-03-19T13:20:50.433Z,3.10
2023-03-19T13:24:18.437Z,3.40
2023-03-19T13:27:30.482Z,3.70
2023-03-19T13:30:33.586Z,4.10
2023-03-19T13:33:40.755Z,4.20
2023-03-19T13:36:47.458Z,3.80
2023-03-19T13:39:50.457Z,3.30
2023-03-19T13:42:57.320Z,5.30
2023-03-19T13:46:12.431Z,4.70
2023-03-19T13:49:34.485Z,4.80
2023-03-19T13:52:46.073Z,4.40
2023-03-19T13:55:53.828Z,7.00
2023-03-19T13:59:15.396Z,4.30
2023-03-19T14:02:27.074Z,3.60
2023-03-19T14:05:36.312Z,4.20
2023-03-19T14:08:47.604Z,5.10
2023-03-19T14:11:50.751Z,5.10
2023-03-19T14:15:05.503Z,3.80
2023-03-19T14:18:16.630Z,3.00
2023-03-19T14:21:47.203Z,3.70
2023-03-19T14:25:17.599Z,3.50
2023-03-19T14:28:43.984Z,3.40
2023-03-19T14:32:01.312Z,3.70
2023-03-19T14:35:06.745Z,4.40
2023-03-19T14:38:21.469Z,3.90
2023-03-19T14:41:27.591Z,3.90
2023-03-19T14:45:06.245Z,3.20
2023-03-19T14:48:35.589Z,4.10
2023-03-19T14:52:01.091Z,4.50
2023-03-19T14:55:11.413Z,5.30
2023-03-19T14:58:15.458Z,5.90
2023-03-19T15:01:19.954Z,4.80
2023-03-19T15:04:26.146Z,6.60
2023-03-19T15:07:34.106Z,4.20
2023-03-19T15:11:07.165Z,3.70
2023-03-19T15:14:25.480Z,4.40
2023-03-19T15:17:30.185Z,5.20
2023-03-19T15:20:54.580Z,4.00
2023-03-19T15:23:58.184Z,5.10
2023-03-19T15:27:01.126Z,3.90
2023-03-19T15:30:19.307Z,5.00
2023-03-19T15:33:38.962Z,5.70
2023-03-19T15:36:42.842Z,5.70
2023-03-19T15:39:50.165Z,5.70
2023-03-19T15:42:54.134Z,5.60
2023-03-19T15:45:57.208Z,6.40
2023-03-19T15:49:05.038Z,6.20
2023-03-19T15:52:13.158Z,6.50
2023-03-19T15:55:17.270Z,7.00
2023-03-19T15:58:25.890Z,6.00
2023-03-19T16:01:31.875Z,7.20
2023-03-19T16:04:55.805Z,5.60
2023-03-19T16:08:26.162Z,6.00
2023-03-19T16:11:38.906Z,7.00
2023-03-19T16:14:43.531Z,6.30
2023-03-19T16:17:46.441Z,5.30
2023-03-19T16:21:01.240Z,6.40
2023-03-19T16:24:09.506Z,8.30
2023-03-19T16:27:19.036Z,9.20
2023-03-19T16:30:27.147Z,10.50
2023-03-19T16:33:30.689Z,12.70
2023-03-19T16:36:33.836Z,13.00
2023-03-19T16:39:53.147Z,11.60
2023-03-19T16:43:07.238Z,24.00
2023-03-19T16:46:12.927Z,27.30
2023-03-19T16:49:15.773Z,23.50
2023-03-19T16:52:22.759Z,19.20
2023-03-19T16:55:32.519Z,29.20
2023-03-19T16:58:45.856Z,26.10
2023-03-19T17:01:48.683Z,16.20
2023-03-19T17:04:51.629Z,13.50
2023-03-19T17:07:55.905Z,7.20
2023-03-19T17:10:58.897Z,8.70
2023-03-19T17:14:03.439Z,11.30
2023-03-19T17:17:16.867Z,12.30
2023-03-19T17:20:28.140Z,11.30
2023-03-19T17:23:31.106Z,12.10
2023-03-19T17:26:34.616Z,10.30
2023-03-19T17:29:37.435Z,8.90
2023-03-19T17:32:44.184Z,12.50
2023-03-19T17:35:46.968Z,17.00
2023-03-19T17:38:49.744Z,18.70
2023-03-19T17:41:54.075Z,41.90
2023-03-19T17:44:58.989Z,34.00
2023-03-19T17:48:01.793Z,19.10
2023-03-19T17:51:05.046Z,11.30
2023-03-19T17:54:11.981Z,14.70
2023-03-19T17:57:16.108Z,15.10
2023-03-19T18:00:20.784Z,15.70
2023-03-19T18:03:26.860Z,17.90
2023-03-19T18:06:35.953Z,12.20
2023-03-19T18:09:38.842Z,11.40
2023-03-19T18:12:41.652Z,10.10
2023-03-19T18:15:53.022Z,11.20
2023-03-19T18:19:16.361Z,13.40
2023-03-19T18:22:29.198Z,13.20
2023-03-19T18:25:35.292Z,13.20
2023-03-19T18:31:45.728Z,10.80
2023-03-19T18:34:48.623Z,9.80
2023-03-19T18:37:53.038Z,9.90
2023-03-19T18:40:56.057Z,10.00
2023-03-19T18:43:58.859Z,10.40
2023-03-19T18:47:01.870Z,9.60
2023-03-19T18:50:53.753Z,11.70
2023-03-19T18:53:55.249Z,9.30
2023-03-19T18:57:00.759Z,10.80
2023-03-19T19:00:04.296Z,8.90
2023-03-19T19:03:07.922Z,11.30
2023-03-19T19:06:21.483Z,11.90
2023-03-19T19:09:24.403Z,10.40
2023-03-19T19:12:27.465Z,20.10
2023-03-19T19:15:36.008Z,23.50
2023-03-19T19:18:38.857Z,28.10
2023-03-19T19:21:41.763Z,24.00
2023-03-19T19:24:44.679Z,25.20
2023-03-19T19:27:53.794Z,28.40
2023-03-19T19:30:59.340Z,34.00
2023-03-19T19:34:02.237Z,33.70
2023-03-19T19:37:05.051Z,30.70
2023-03-19T19:40:09.714Z,35.40
2023-03-19T19:43:22.192Z,28.80
2023-03-19T19:46:25.112Z,26.50
2023-03-19T19:49:28.816Z,27.20
2023-03-19T19:52:31.914Z,32.50
2023-03-19T19:55:35.376Z,29.70
2023-03-19T19:58:38.363Z,27.50
2023-03-19T20:01:41.275Z,30.50
2023-03-19T20:04:44.134Z,28.50
2023-03-19T20:07:47.033Z,26.90
2023-03-19T20:10:50.290Z,22.00
2023-03-19T20:13:55.647Z,22.70
2023-03-19T20:16:59.138Z,22.30
2023-03-19T20:20:02.146Z,21.10
2023-03-19T20:23:05.050Z,19.60
2023-03-19T20:26:15.527Z,20.30
2023-03-19T20:29:18.573Z,22.60
2023-03-19T20:32:27.123Z,21.90
2023-03-19T20:35:34.410Z,20.20
2023-03-19T20:38:37.617Z,17.80
2023-03-19T20:41:40.505Z,17.30
2023-03-19T20:44:44.106Z,14.10
2023-03-19T20:47:48.654Z,15.40
2023-03-19T20:50:52.362Z,16.40
2023-03-19T20:53:55.484Z,19.60
2023-03-19T20:56:59.469Z,21.80
2023-03-19T21:00:07.101Z,15.90
2023-03-19T21:03:17.813Z,16.70
2023-03-19T21:06:24.056Z,14.90
2023-03-19T21:09:26.875Z,14.80
2023-03-19T21:12:33.667Z,15.20
2023-03-19T21:15:37.117Z,12.90
2023-03-19T21:18:40.059Z,16.40
2023-03-19T21:21:43.530Z,16.00
2023-03-19T21:24:47.095Z,14.00
2023-03-19T21:27:53.727Z,17.00
2023-03-19T21:30:57.817Z,16.90
2023-03-19T21:34:00.724Z,17.30
2023-03-19T21:37:04.706Z,16.00
2023-03-19T21:40:14.090Z,16.80
2023-03-19T21:43:22.765Z,18.50
2023-03-19T21:46:31.030Z,17.20
2023-03-19T21:49:35.019Z,15.70
2023-03-19T21:52:56.285Z,18.40
2023-03-19T21:56:00.932Z,13.50
2023-03-19T21:59:10.446Z,13.30
2023-03-19T22:02:22.548Z,11.50
2023-03-19T22:05:27.717Z,10.60
2023-03-19T22:08:30.697Z,11.50
2023-03-19T22:11:37.143Z,10.60
2023-03-19T22:14:40.309Z,11.70
2023-03-19T22:17:43.231Z,9.80
2023-03-19T22:20:47.650Z,10.50
2023-03-19T22:23:51.643Z,12.80
2023-03-19T22:26:57.831Z,11.40
2023-03-19T22:30:01.818Z,13.70
2023-03-19T22:33:20.368Z,11.00
2023-03-19T22:36:23.407Z,11.80
2023-03-19T22:39:26.353Z,12.90
2023-03-19T22:42:29.240Z,10.40
2023-03-19T22:45:33.527Z,12.90
2023-03-19T22:48:37.562Z,13.00
2023-03-19T22:51:40.467Z,11.10
2023-03-19T22:54:43.283Z,10.30
2023-03-19T22:57:46.546Z,12.60
2023-03-19T23:00:50.065Z,11.60
2023-03-19T23:03:52.834Z,9.00
2023-03-19T23:06:57.014Z,10.00
2023-03-19T23:10:00.851Z,9.00
2023-03-19T23:13:03.705Z,7.80
2023-03-19T23:16:18.608Z,6.70
2023-03-19T23:19:24.617Z,5.60
2023-03-19T23:22:27.561Z,7.10
2023-03-19T23:25:30.737Z,7.40
2023-03-19T23:28:34.879Z,8.60
2023-03-19T23:31:37.797Z,7.60
2023-03-19T23:34:56.413Z,10.10
2023-03-19T23:38:01.856Z,10.70
2023-03-19T23:41:05.410Z,8.60
2023-03-19T23:44:13.772Z,6.80
2023-03-19T23:47:17.055Z,11.00
2023-03-19T23:50:19.892Z,8.60
2023-03-19T23:53:25.756Z,8.10
2023-03-19T23:59:52.414Z,6.10
